createdAt,value
2022-10-07T00:01:26.603Z,66.41
2022-10-07T00:03:54.331Z,66.29
2022-10-07T00:06:23.144Z,66.13
2022-10-07T00:08:53.439Z,65.69
2022-10-07T00:11:29.562Z,65.33
2022-10-07T00:14:03.634Z,65.01
2022-10-07T00:16:39.676Z,64.51
2022-10-07T00:19:13.280Z,65.40
2022-10-07T00:21:41.008Z,65.17
2022-10-07T00:24:10.316Z,65.06
2022-10-07T00:26:40.067Z,65.15
2022-10-07T00:29:07.743Z,64.29
2022-10-07T00:31:37.301Z,64.90
2022-10-07T00:34:05.647Z,64.81
2022-10-07T00:36:37.402Z,64.58
2022-10-07T00:39:15.059Z,65.02
2022-10-07T00:41:52.640Z,64.76
2022-10-07T00:44:46.277Z,64.59
2022-10-07T00:47:30.523Z,64.69
2022-10-07T00:50:11.543Z,64.82
2022-10-07T00:52:51.832Z,65.23
2022-10-07T00:55:27.025Z,66.01
2022-10-07T00:58:01.361Z,66.64
2022-10-07T01:00:28.893Z,66.40
2022-10-07T01:02:56.231Z,66.49
2022-10-07T01:05:23.551Z,66.16
2022-10-07T01:07:53.281Z,66.30
2022-10-07T01:10:25.294Z,66.20
2022-10-07T01:13:26.598Z,66.07
2022-10-07T01:16:37.922Z,66.36
2022-10-07T01:20:00.551Z,66.71
2022-10-07T01:23:10.589Z,66.88
2022-10-07T01:26:15.808Z,66.67
2022-10-07T01:29:02.302Z,66.44
2022-10-07T01:31:42.773Z,66.15
2022-10-07T01:34:13.970Z,66.10
2022-10-07T01:36:51.835Z,66.49
2022-10-07T01:39:30.656Z,66.26
2022-10-07T01:41:59.106Z,66.46
2022-10-07T01:44:30.324Z,66.69
2022-10-07T01:46:59.159Z,66.13
2022-10-07T01:49:26.832Z,66.04
2022-10-07T01:52:51.732Z,67.04
2022-10-07T01:55:46.701Z,66.88
2022-10-07T01:58:46.510Z,66.55
2022-10-07T02:01:47.068Z,67.12
2022-10-07T02:04:44.720Z,66.75
2022-10-07T02:08:12.410Z,67.12
2022-10-07T02:11:31.460Z,67.16
2022-10-07T02:14:23.114Z,66.79
2022-10-07T02:17:10.640Z,67.04
2022-10-07T02:19:48.871Z,66.91
2022-10-07T02:22:19.383Z,66.78
2022-10-07T02:24:49.341Z,66.06
2022-10-07T02:27:28.913Z,66.56
2022-10-07T02:30:05.606Z,67.08
2022-10-07T02:32:36.971Z,66.13
2022-10-07T02:35:23.957Z,66.82
2022-10-07T02:37:56.262Z,66.65
2022-10-07T02:40:32.248Z,67.10
2022-10-07T02:43:20.157Z,66.73
2022-10-07T02:46:15.780Z,66.51
2022-10-07T02:49:09.990Z,66.79
2022-10-07T02:52:06.540Z,67.39
2022-10-07T02:55:03.817Z,66.78
2022-10-07T02:57:46.491Z,67.34
2022-10-07T03:00:17.859Z,66.72
2022-10-07T03:03:02.506Z,66.33
2022-10-07T03:05:31.687Z,65.96
2022-10-07T03:08:11.230Z,66.36
2022-10-07T03:10:38.981Z,66.20
2022-10-07T03:13:06.325Z,65.63
2022-10-07T03:15:41.921Z,65.48
2022-10-07T03:18:26.256Z,65.61
2022-10-07T03:20:57.098Z,64.79
2022-10-07T03:23:25.995Z,65.76
2022-10-07T03:25:58.255Z,65.85
2022-10-07T03:28:31.605Z,66.00
2022-10-07T03:31:10.289Z,65.91
2022-10-07T03:33:38.312Z,65.14
2022-10-07T03:36:08.392Z,65.15
2022-10-07T03:38:36.181Z,65.22
2022-10-07T03:41:04.606Z,65.14
2022-10-07T03:43:33.680Z,65.49
2022-10-07T03:46:02.339Z,64.27
2022-10-07T03:48:31.381Z,64.56
2022-10-07T03:50:59.268Z,64.56
2022-10-07T03:53:29.550Z,65.20
2022-10-07T03:55:57.842Z,64.61
2022-10-07T03:58:25.785Z,65.16
2022-10-07T04:01:03.477Z,64.84
2022-10-07T04:03:33.935Z,65.30
2022-10-07T04:06:02.456Z,65.16
2022-10-07T04:08:32.840Z,64.37
2022-10-07T04:11:02.149Z,63.79
2022-10-07T04:13:29.561Z,63.65
2022-10-07T04:15:56.935Z,64.32
2022-10-07T04:18:25.094Z,65.31
2022-10-07T04:20:52.468Z,65.01
2022-10-07T04:23:19.751Z,65.60
2022-10-07T04:25:47.769Z,65.68
2022-10-07T04:28:25.988Z,65.40
2022-10-07T04:30:54.366Z,65.01
2022-10-07T04:33:24.556Z,65.50
2022-10-07T04:35:52.082Z,65.95
2022-10-07T04:38:19.636Z,65.76
2022-10-07T04:40:52.681Z,66.05
2022-10-07T04:43:23.484Z,65.53
2022-10-07T04:46:06.587Z,65.23
2022-10-07T04:48:34.894Z,65.56
2022-10-07T04:51:09.048Z,65.61
2022-10-07T04:53:38.820Z,65.11
2022-10-07T04:56:06.946Z,65.33
2022-10-07T04:58:34.363Z,65.76
2022-10-07T05:01:09.862Z,65.47
2022-10-07T05:03:39.909Z,65.56
2022-10-07T05:06:08.658Z,65.66
2022-10-07T05:08:36.579Z,66.57
2022-10-07T05:11:04.635Z,66.07
2022-10-07T05:13:32.457Z,66.75
2022-10-07T05:16:03.053Z,65.75
2022-10-07T05:18:31.242Z,66.15
2022-10-07T05:20:58.609Z,65.43
2022-10-07T05:23:28.664Z,66.07
2022-10-07T05:26:09.520Z,66.12
2022-10-07T05:28:38.142Z,66.30
2022-10-07T05:31:14.652Z,66.78
2022-10-07T05:33:43.997Z,66.98
2022-10-07T05:36:12.176Z,66.81
2022-10-07T05:38:39.596Z,67.20
2022-10-07T05:41:12.154Z,67.46
2022-10-07T05:43:43.087Z,67.43
2022-10-07T05:46:18.221Z,67.81
2022-10-07T05:48:53.283Z,68.51
2022-10-07T05:51:24.317Z,68.04
2022-10-07T05:53:58.212Z,68.87
2022-10-07T05:56:25.711Z,69.01
2022-10-07T05:58:53.744Z,68.75
2022-10-07T06:01:24.524Z,68.75
2022-10-07T06:03:59.933Z,69.20
2022-10-07T06:06:27.448Z,68.44
2022-10-07T06:08:54.776Z,69.05
2022-10-07T06:11:40.833Z,68.65
2022-10-07T06:14:08.152Z,68.55
2022-10-07T06:16:35.529Z,68.81
2022-10-07T06:19:02.936Z,69.33
2022-10-07T06:21:30.188Z,69.52
2022-10-07T06:24:00.788Z,69.46
2022-10-07T06:26:28.332Z,70.29
2022-10-07T06:28:55.588Z,70.15
2022-10-07T06:31:25.156Z,70.84
2022-10-07T06:33:54.081Z,71.26
2022-10-07T06:36:21.660Z,72.14
2022-10-07T06:38:52.923Z,71.14
2022-10-07T06:41:23.425Z,71.39
2022-10-07T06:43:54.475Z,71.12
2022-10-07T06:46:24.389Z,71.42
2022-10-07T06:48:51.738Z,71.29
2022-10-07T06:51:22.021Z,71.15
2022-10-07T06:53:59.527Z,71.77
2022-10-07T06:56:26.893Z,71.42
2022-10-07T06:58:54.192Z,71.02
2022-10-07T07:01:21.666Z,70.93
2022-10-07T07:03:48.970Z,71.10
2022-10-07T07:06:17.843Z,70.71
2022-10-07T07:08:45.971Z,70.64
2022-10-07T07:11:32.943Z,70.69
2022-10-07T07:14:00.744Z,70.74
2022-10-07T07:16:28.785Z,71.06
2022-10-07T07:19:04.088Z,70.75
2022-10-07T07:21:33.561Z,71.17
2022-10-07T07:24:02.334Z,71.13
2022-10-07T07:26:31.376Z,70.95
2022-10-07T07:29:03.705Z,71.23
2022-10-07T07:31:35.456Z,70.97
2022-10-07T07:34:13.534Z,70.42
2022-10-07T07:36:51.722Z,71.19
2022-10-07T07:39:20.881Z,70.93
2022-10-07T07:41:48.493Z,70.04
2022-10-07T07:44:19.118Z,70.23
2022-10-07T07:46:51.341Z,70.15
2022-10-07T07:49:21.602Z,69.71
2022-10-07T07:51:50.193Z,69.42
2022-10-07T07:54:17.654Z,69.82
2022-10-07T07:56:46.157Z,69.26
2022-10-07T07:59:13.457Z,69.36
2022-10-07T08:01:41.046Z,69.79
2022-10-07T08:04:10.776Z,69.58
2022-10-07T08:06:40.374Z,69.42
2022-10-07T08:09:08.229Z,69.36
2022-10-07T08:11:35.604Z,68.90
2022-10-07T08:14:03.352Z,68.94
2022-10-07T08:16:30.920Z,68.92
2022-10-07T08:18:58.737Z,68.58
2022-10-07T08:21:35.297Z,68.42
2022-10-07T08:24:07.329Z,68.14
2022-10-07T08:26:38.009Z,68.09
2022-10-07T08:29:05.540Z,67.61
2022-10-07T08:31:34.091Z,67.18
2022-10-07T08:34:04.905Z,67.50
2022-10-07T08:36:33.797Z,67.18
2022-10-07T08:39:04.593Z,66.78
2022-10-07T08:41:36.421Z,66.33
2022-10-07T08:44:32.392Z,65.99
2022-10-07T08:47:38.492Z,65.63
2022-10-07T08:50:57.864Z,65.25
2022-10-07T08:53:36.739Z,64.64
2022-10-07T08:56:20.350Z,64.25
2022-10-07T08:59:31.229Z,63.69
2022-10-07T09:03:07.421Z,62.40
2022-10-07T09:05:44.296Z,61.81
2022-10-07T09:08:40.272Z,61.80
2022-10-07T09:11:16.128Z,62.01
2022-10-07T09:13:58.139Z,60.35
2022-10-07T09:16:44.790Z,59.99
2022-10-07T09:19:38.153Z,59.19
2022-10-07T09:22:24.404Z,59.21
2022-10-07T09:25:13.361Z,57.85
2022-10-07T09:27:41.063Z,58.95
2022-10-07T09:30:14.136Z,58.46
2022-10-07T09:32:50.333Z,57.89
2022-10-07T09:35:27.812Z,57.33
2022-10-07T09:38:03.788Z,57.26
2022-10-07T09:41:07.133Z,56.36
2022-10-07T09:43:36.550Z,54.89
2022-10-07T09:46:03.959Z,54.89
2022-10-07T09:48:34.709Z,54.94
2022-10-07T09:51:25.494Z,53.87
2022-10-07T09:54:19.665Z,54.15
2022-10-07T09:56:54.245Z,52.71
2022-10-07T09:59:31.805Z,53.30
2022-10-07T10:02:23.031Z,52.25
2022-10-07T10:04:59.813Z,52.45
2022-10-07T10:07:37.431Z,51.36
2022-10-07T10:10:23.969Z,51.06
2022-10-07T10:12:55.903Z,51.72
2022-10-07T10:15:44.931Z,49.90
2022-10-07T10:18:52.821Z,50.42
2022-10-07T10:21:35.863Z,49.08
2022-10-07T10:24:11.706Z,49.06
2022-10-07T10:27:21.685Z,47.91
2022-10-07T10:30:10.740Z,47.77
2022-10-07T10:33:30.336Z,46.56
2022-10-07T10:36:21.969Z,46.24
2022-10-07T10:40:19.106Z,45.48
2022-10-07T10:43:35.396Z,45.90
2022-10-07T10:47:13.057Z,44.91
2022-10-07T10:50:26.556Z,44.94
2022-10-07T10:53:49.163Z,44.92
2022-10-07T10:57:23.891Z,43.29
2022-10-07T11:00:20.889Z,43.13
2022-10-07T11:03:52.085Z,44.16
2022-10-07T11:06:20.232Z,43.86
2022-10-07T11:08:50.909Z,42.50
2022-10-07T11:11:23.136Z,42.58
2022-10-07T11:14:19.461Z,41.55
2022-10-07T11:17:03.317Z,40.78
2022-10-07T11:20:08.416Z,40.17
2022-10-07T11:22:50.903Z,40.70
2022-10-07T11:25:38.418Z,42.15
2022-10-07T11:28:21.618Z,42.13
2022-10-07T11:31:35.822Z,44.70
2022-10-07T11:34:21.723Z,44.29
2022-10-07T11:37:10.195Z,44.87
2022-10-07T11:39:39.189Z,42.90
2022-10-07T11:42:27.705Z,42.41
2022-10-07T11:45:08.550Z,45.57
2022-10-07T11:47:49.349Z,43.63
2022-10-07T11:50:36.878Z,41.21
2022-10-07T11:53:19.651Z,40.88
2022-10-07T11:56:13.192Z,41.52
2022-10-07T11:58:40.728Z,39.72
2022-10-07T12:01:26.041Z,41.86
2022-10-07T12:04:17.359Z,41.73
2022-10-07T12:07:32.967Z,40.59
2022-10-07T12:10:05.555Z,40.83
2022-10-07T12:12:44.995Z,39.80
2022-10-07T12:15:34.654Z,38.94
2022-10-07T12:18:05.545Z,40.52
2022-10-07T12:20:50.734Z,39.75
2022-10-07T12:23:20.870Z,39.63
2022-10-07T12:25:53.689Z,40.91
2022-10-07T12:28:47.478Z,39.51
2022-10-07T12:31:19.159Z,40.67
2022-10-07T12:33:46.447Z,40.67
2022-10-07T12:36:22.138Z,40.83
2022-10-07T12:38:59.144Z,41.07
2022-10-07T12:41:40.786Z,40.69
2022-10-07T12:44:40.892Z,39.07
2022-10-07T12:47:13.896Z,37.52
2022-10-07T12:50:10.745Z,37.29
2022-10-07T12:52:55.322Z,38.02
2022-10-07T12:55:39.189Z,36.47
2022-10-07T12:59:05.038Z,36.51
2022-10-07T13:03:03.348Z,37.37
2022-10-07T13:06:41.409Z,39.21
2022-10-07T13:09:17.389Z,35.23
2022-10-07T13:13:00.688Z,37.69
2022-10-07T13:15:58.080Z,36.79
2022-10-07T13:19:03.544Z,37.95
2022-10-07T13:21:46.206Z,36.56
2022-10-07T13:24:22.466Z,34.28
2022-10-07T13:26:50.104Z,36.21
2022-10-07T13:29:36.568Z,35.35
2022-10-07T13:32:16.146Z,34.76
2022-10-07T13:34:47.159Z,34.36
2022-10-07T13:37:35.753Z,37.17
2022-10-07T13:40:35.769Z,36.57
2022-10-07T13:43:08.881Z,36.56
2022-10-07T13:45:45.982Z,37.95
2022-10-07T13:48:23.291Z,35.07
2022-10-07T13:50:55.658Z,36.42
2022-10-07T13:53:36.912Z,38.78
2022-10-07T13:56:36.073Z,36.69
2022-10-07T13:59:06.634Z,36.73
2022-10-07T14:01:40.180Z,38.10
2022-10-07T14:04:29.223Z,37.45
2022-10-07T14:07:11.381Z,37.92
2022-10-07T14:10:01.549Z,38.01
2022-10-07T14:12:42.160Z,37.96
2022-10-07T14:15:31.854Z,38.71
2022-10-07T14:18:10.517Z,39.51
2022-10-07T14:20:45.253Z,38.98
2022-10-07T14:23:34.251Z,38.66
2022-10-07T14:26:11.123Z,37.33
2022-10-07T14:28:41.408Z,39.97
2022-10-07T14:31:29.196Z,39.67
2022-10-07T14:34:38.230Z,38.91
2022-10-07T14:37:26.244Z,38.05
2022-10-07T14:39:56.991Z,39.39
2022-10-07T14:42:32.940Z,38.26
2022-10-07T14:45:08.236Z,39.17
2022-10-07T14:47:36.320Z,39.88
2022-10-07T14:50:03.904Z,39.04
2022-10-07T14:52:49.870Z,38.15
2022-10-07T14:55:27.841Z,38.71
2022-10-07T14:57:55.672Z,38.42
2022-10-07T15:00:29.353Z,38.07
2022-10-07T15:02:56.826Z,38.24
2022-10-07T15:05:26.362Z,38.85
2022-10-07T15:07:53.688Z,41.13
2022-10-07T15:10:26.611Z,40.89
2022-10-07T15:12:55.986Z,40.04
2022-10-07T15:15:23.269Z,40.26
2022-10-07T15:17:50.556Z,39.97
2022-10-07T15:20:19.493Z,39.95
2022-10-07T15:22:47.091Z,40.86
2022-10-07T15:25:15.329Z,40.92
2022-10-07T15:27:42.887Z,40.92
2022-10-07T15:30:11.956Z,41.98
2022-10-07T15:32:39.461Z,42.19
2022-10-07T15:35:08.014Z,42.48
2022-10-07T15:37:35.361Z,42.45
2022-10-07T15:40:03.083Z,43.02
2022-10-07T15:42:30.368Z,43.23
2022-10-07T15:44:57.808Z,43.28
2022-10-07T15:47:27.225Z,44.22
2022-10-07T15:49:54.587Z,44.51
2022-10-07T15:52:22.709Z,44.61
2022-10-07T15:54:49.972Z,44.22
2022-10-07T15:57:17.256Z,44.42
2022-10-07T15:59:45.693Z,44.79
2022-10-07T16:02:21.188Z,45.57
2022-10-07T16:04:49.090Z,44.87
2022-10-07T16:07:16.675Z,45.13
2022-10-07T16:09:43.949Z,45.52
2022-10-07T16:12:11.327Z,45.81
2022-10-07T16:14:38.950Z,45.84
2022-10-07T16:17:06.297Z,45.78
2022-10-07T16:19:33.761Z,46.33
2022-10-07T16:22:01.472Z,46.80
2022-10-07T16:24:33.993Z,47.05
2022-10-07T16:27:02.429Z,47.54
2022-10-07T16:29:48.078Z,47.91
2022-10-07T16:32:15.492Z,47.62
2022-10-07T16:34:44.399Z,47.04
2022-10-07T16:37:12.603Z,47.59
2022-10-07T16:39:40.078Z,48.26
2022-10-07T16:42:07.864Z,48.08
2022-10-07T16:44:36.163Z,47.81
2022-10-07T16:47:03.507Z,48.15
2022-10-07T16:49:30.830Z,48.35
2022-10-07T16:51:58.588Z,48.17
2022-10-07T16:54:28.482Z,48.53
2022-10-07T16:56:56.379Z,49.00
2022-10-07T16:59:25.868Z,48.93
2022-10-07T17:01:57.012Z,49.37
2022-10-07T17:04:25.508Z,49.99
2022-10-07T17:06:54.172Z,50.85
2022-10-07T17:09:24.412Z,50.82
2022-10-07T17:11:51.935Z,51.73
2022-10-07T17:14:22.829Z,51.20
2022-10-07T17:16:58.337Z,52.11
2022-10-07T17:19:29.000Z,53.44
2022-10-07T17:22:00.033Z,53.41
2022-10-07T17:24:31.100Z,53.93
2022-10-07T17:27:01.013Z,55.36
2022-10-07T17:29:29.598Z,56.83
2022-10-07T17:31:56.931Z,56.53
2022-10-07T17:34:24.330Z,56.07
2022-10-07T17:36:52.040Z,56.32
2022-10-07T17:39:19.697Z,56.93
2022-10-07T17:41:47.495Z,56.47
2022-10-07T17:44:14.942Z,57.22
2022-10-07T17:46:42.731Z,57.30
2022-10-07T17:49:14.780Z,57.55
2022-10-07T17:51:43.221Z,57.67
2022-10-07T17:54:14.207Z,57.93
2022-10-07T17:56:44.387Z,58.09
2022-10-07T17:59:12.289Z,58.49
2022-10-07T18:01:41.243Z,58.02
2022-10-07T18:04:23.684Z,58.13
2022-10-07T18:06:52.216Z,59.65
2022-10-07T18:09:22.168Z,60.44
2022-10-07T18:12:08.136Z,60.37
2022-10-07T18:14:54.558Z,60.18
2022-10-07T18:17:25.211Z,59.24
2022-10-07T18:19:52.683Z,59.59
2022-10-07T18:22:20.484Z,60.95
2022-10-07T18:24:52.201Z,60.32
2022-10-07T18:27:25.117Z,59.75
2022-10-07T18:29:53.035Z,59.43
2022-10-07T18:32:21.666Z,59.79
2022-10-07T18:34:49.113Z,60.57
2022-10-07T18:37:16.782Z,59.58
2022-10-07T18:39:44.297Z,59.67
2022-10-07T18:42:11.556Z,60.40
2022-10-07T18:44:38.829Z,60.17
2022-10-07T18:47:06.076Z,60.38
2022-10-07T18:49:33.416Z,60.26
2022-10-07T18:52:01.794Z,60.24
2022-10-07T18:54:29.081Z,60.65
2022-10-07T18:56:56.400Z,61.62
2022-10-07T18:59:24.518Z,61.27
2022-10-07T19:01:51.925Z,62.80
2022-10-07T19:04:19.992Z,62.15
2022-10-07T19:06:48.289Z,63.93
2022-10-07T19:09:22.223Z,64.95
2022-10-07T19:11:50.256Z,64.51
2022-10-07T19:14:17.879Z,64.26
2022-10-07T19:16:51.350Z,64.07
2022-10-07T19:19:23.611Z,63.76
2022-10-07T19:21:55.095Z,63.96
2022-10-07T19:24:42.692Z,63.88
2022-10-07T19:27:11.522Z,63.24
2022-10-07T19:29:38.784Z,62.85
2022-10-07T19:32:08.624Z,62.68
2022-10-07T19:34:36.843Z,62.68
2022-10-07T19:37:04.187Z,63.06
2022-10-07T19:39:31.463Z,63.98
2022-10-07T19:41:59.197Z,63.31
2022-10-07T19:44:26.545Z,62.87
2022-10-07T19:46:54.413Z,63.98
2022-10-07T19:49:22.323Z,64.00
2022-10-07T19:51:49.618Z,64.20
2022-10-07T19:54:16.972Z,63.55
2022-10-07T19:56:45.151Z,63.86
2022-10-07T19:59:15.049Z,64.85
2022-10-07T20:01:47.470Z,64.29
2022-10-07T20:04:20.950Z,64.25
2022-10-07T20:06:49.006Z,63.91
2022-10-07T20:09:19.007Z,64.48
2022-10-07T20:11:47.080Z,63.82
2022-10-07T20:14:15.196Z,64.50
2022-10-07T20:16:43.133Z,64.56
2022-10-07T20:19:18.646Z,64.09
2022-10-07T20:21:46.944Z,64.34
2022-10-07T20:24:16.427Z,64.70
2022-10-07T20:26:45.804Z,64.21
2022-10-07T20:29:16.516Z,64.31
2022-10-07T20:31:44.972Z,64.40
2022-10-07T20:34:18.375Z,64.46
2022-10-07T20:36:45.729Z,66.01
2022-10-07T20:39:39.010Z,66.17
2022-10-07T20:42:29.189Z,65.33
2022-10-07T20:44:58.799Z,66.19
2022-10-07T20:47:31.773Z,65.51
2022-10-07T20:50:02.100Z,65.28
2022-10-07T20:52:34.664Z,66.59
2022-10-07T20:55:02.028Z,66.65
2022-10-07T20:57:33.863Z,67.64
2022-10-07T21:00:01.116Z,67.75
2022-10-07T21:02:29.066Z,67.96
2022-10-07T21:04:56.509Z,67.62
2022-10-07T21:07:23.784Z,68.62
2022-10-07T21:09:51.122Z,67.49
2022-10-07T21:12:18.698Z,67.99
2022-10-07T21:14:47.930Z,67.35
2022-10-07T21:17:16.761Z,67.19
2022-10-07T21:19:44.063Z,67.43
2022-10-07T21:22:11.365Z,67.64
2022-10-07T21:24:38.665Z,67.29
2022-10-07T21:27:08.154Z,68.22
2022-10-07T21:29:40.663Z,67.57
2022-10-07T21:32:10.811Z,67.69
2022-10-07T21:34:38.779Z,67.53
2022-10-07T21:37:06.120Z,66.95
2022-10-07T21:39:33.906Z,66.49
2022-10-07T21:42:01.838Z,66.32
2022-10-07T21:44:29.430Z,67.27
2022-10-07T21:46:59.748Z,66.54
2022-10-07T21:49:27.039Z,66.85
2022-10-07T21:51:54.293Z,67.34
2022-10-07T21:54:21.546Z,67.28
2022-10-07T21:56:50.167Z,67.29
2022-10-07T21:59:17.451Z,67.57
2022-10-07T22:01:44.785Z,67.61
2022-10-07T22:04:19.513Z,67.13
2022-10-07T22:07:07.566Z,67.62
2022-10-07T22:09:38.416Z,67.33
2022-10-07T22:12:05.825Z,68.58
2022-10-07T22:14:33.148Z,68.44
2022-10-07T22:17:00.413Z,68.58
2022-10-07T22:19:27.680Z,67.93
2022-10-07T22:21:55.245Z,68.02
2022-10-07T22:24:24.004Z,68.25
2022-10-07T22:26:51.504Z,68.38
2022-10-07T22:29:21.665Z,69.16
2022-10-07T22:31:50.471Z,68.46
2022-10-07T22:34:36.487Z,68.00
2022-10-07T22:37:05.132Z,67.77
2022-10-07T22:39:32.402Z,68.34
2022-10-07T22:42:01.152Z,69.19
2022-10-07T22:44:28.605Z,68.93
2022-10-07T22:46:59.305Z,68.76
2022-10-07T22:49:30.048Z,68.89
2022-10-07T22:52:00.193Z,69.31
2022-10-07T22:54:28.466Z,68.91
2022-10-07T22:56:56.052Z,68.65
2022-10-07T22:59:23.317Z,68.68
2022-10-07T23:01:50.577Z,69.18
2022-10-07T23:04:20.199Z,68.87
2022-10-07T23:06:47.568Z,69.04
2022-10-07T23:09:14.904Z,68.94
2022-10-07T23:11:42.164Z,69.07
2022-10-07T23:14:09.680Z,68.76
2022-10-07T23:16:38.584Z,69.15
2022-10-07T23:19:05.870Z,69.85
2022-10-07T23:21:36.979Z,69.65
2022-10-07T23:24:07.813Z,69.23
2022-10-07T23:26:37.172Z,70.00
2022-10-07T23:29:04.884Z,68.88
2022-10-07T23:31:33.438Z,70.11
2022-10-07T23:34:04.390Z,70.28
2022-10-07T23:36:33.271Z,69.62
2022-10-07T23:39:01.661Z,69.55
2022-10-07T23:41:33.991Z,70.15
2022-10-07T23:44:03.417Z,69.71
2022-10-07T23:46:35.067Z,69.66
2022-10-07T23:49:04.096Z,69.83
2022-10-07T23:51:32.494Z,69.84
2022-10-07T23:54:03.651Z,70.59
2022-10-07T23:56:32.201Z,70.06
2022-10-07T23:59:01.625Z,70.04
